BCS544 LOWW-LBSF
Flight info
| Callsign | BCS544 |
|---|---|
| Flight time | 1h 17m |
| Altitude | 35000 |
| Route | ARSIN DCT NALOX DCT BABIT/N0462F330 DCT RAVAK DCT NISVA |
| Aircraft | B752/M-SDE2E3FGHIJ3J4J7RWXY/LB1 |
Departure
| Time | 2026-04-22 17:43 |
|---|---|
| Airport | Vienna International Airport (LOWW) |
Arrival
| Time | 2026-04-22 19:00 |
|---|---|
| Airport | Sofia Airport (LBSF) |
| Time | Latitude | Longitude | Altitude | Speed | Heading |
|---|---|---|---|---|---|
| 2026-04-22 17:16 | 48.12220 | 16.54738 | 577 ft | 0 kts | 26° |
| 2026-04-22 17:29 | 48.12210 | 16.54730 | 577 ft | 2 kts | 24° |
| 2026-04-22 17:29 | 48.12196 | 16.54721 | 577 ft | 2 kts | 28° |
| 2026-04-22 17:29 | 48.12183 | 16.54711 | 577 ft | 2 kts | 25° |
| 2026-04-22 17:30 | 48.12169 | 16.54701 | 578 ft | 2 kts | 26° |
| 2026-04-22 17:30 | 48.12156 | 16.54691 | 578 ft | 2 kts | 26° |
| 2026-04-22 17:30 | 48.12145 | 16.54675 | 578 ft | 2 kts | 70° |
| 2026-04-22 17:30 | 48.12144 | 16.54653 | 578 ft | 2 kts | 105° |
| 2026-04-22 17:31 | 48.12147 | 16.54644 | 577 ft | 1 kts | 119° |
| 2026-04-22 17:31 | 48.12148 | 16.54640 | 577 ft | 0 kts | 116° |
| 2026-04-22 17:35 | 48.12147 | 16.54642 | 577 ft | 1 kts | 117° |
| 2026-04-22 17:36 | 48.12141 | 16.54659 | 578 ft | 3 kts | 118° |
| 2026-04-22 17:36 | 48.12132 | 16.54688 | 578 ft | 2 kts | 119° |
| 2026-04-22 17:36 | 48.12112 | 16.54744 | 579 ft | 10 kts | 116° |
| 2026-04-22 17:36 | 48.12093 | 16.54843 | 579 ft | 5 kts | 117° |
| 2026-04-22 17:37 | 48.12055 | 16.54928 | 580 ft | 15 kts | 122° |
| 2026-04-22 17:37 | 48.11995 | 16.55106 | 583 ft | 21 kts | 116° |
| 2026-04-22 17:37 | 48.11939 | 16.55281 | 584 ft | 19 kts | 115° |
| 2026-04-22 17:37 | 48.11886 | 16.55454 | 584 ft | 17 kts | 115° |
| 2026-04-22 17:38 | 48.11850 | 16.55586 | 584 ft | 12 kts | 114° |
| 2026-04-22 17:38 | 48.11810 | 16.55712 | 584 ft | 14 kts | 117° |
| 2026-04-22 17:38 | 48.11762 | 16.55789 | 584 ft | 6 kts | 177° |
| 2026-04-22 17:38 | 48.11718 | 16.55786 | 584 ft | 5 kts | 169° |
| 2026-04-22 17:39 | 48.11688 | 16.55817 | 584 ft | 5 kts | 136° |
| 2026-04-22 17:39 | 48.11665 | 16.55874 | 585 ft | 13 kts | 118° |
| 2026-04-22 17:39 | 48.11465 | 16.56487 | 599 ft | 22 kts | 116° |
| 2026-04-22 17:40 | 48.11402 | 16.56683 | 604 ft | 19 kts | 116° |
| 2026-04-22 17:40 | 48.11344 | 16.56854 | 604 ft | 17 kts | 117° |
| 2026-04-22 17:40 | 48.11293 | 16.57008 | 606 ft | 14 kts | 115° |
| 2026-04-22 17:40 | 48.11253 | 16.57136 | 605 ft | 10 kts | 116° |
| 2026-04-22 17:41 | 48.11227 | 16.57198 | 605 ft | 3 kts | 128° |
| 2026-04-22 17:41 | 48.11204 | 16.57222 | 605 ft | 3 kts | 170° |
| 2026-04-22 17:41 | 48.11165 | 16.57214 | 604 ft | 7 kts | 197° |
| 2026-04-22 17:41 | 48.11101 | 16.57174 | 605 ft | 11 kts | 206° |
| 2026-04-22 17:42 | 48.11066 | 16.57121 | 606 ft | 4 kts | 260° |
| 2026-04-22 17:42 | 48.11068 | 16.57069 | 606 ft | 6 kts | 285° |
| 2026-04-22 17:42 | 48.11136 | 16.56859 | 604 ft | 46 kts | 296° |
| 2026-04-22 17:42 | 48.11359 | 16.56166 | 591 ft | 100 kts | 297° |
| 2026-04-22 17:43 | 48.11740 | 16.55001 | 585 ft | 147 kts | 297° |
| 2026-04-22 17:43 | 48.12261 | 16.53442 | 605 ft | 186 kts | 300° |
| 2026-04-22 17:43 | 48.12812 | 16.51658 | 1210 ft | 191 kts | 285° |
| 2026-04-22 17:43 | 48.12737 | 16.49634 | 1820 ft | 209 kts | 251° |
| 2026-04-22 17:44 | 48.11890 | 16.47705 | 2065 ft | 236 kts | 226° |
| 2026-04-22 17:44 | 48.10426 | 16.46544 | 2384 ft | 258 kts | 193° |
| 2026-04-22 17:44 | 48.08661 | 16.46485 | 2841 ft | 268 kts | 177° |
| 2026-04-22 17:44 | 48.06710 | 16.46923 | 3218 ft | 286 kts | 167° |
| 2026-04-22 17:45 | 48.04874 | 16.47481 | 3896 ft | 288 kts | 170° |
| 2026-04-22 17:45 | 48.02855 | 16.47968 | 4610 ft | 291 kts | 171° |
| 2026-04-22 17:45 | 48.00874 | 16.48395 | 5345 ft | 293 kts | 172° |
| 2026-04-22 17:45 | 47.98849 | 16.48801 | 6050 ft | 296 kts | 174° |
| 2026-04-22 17:46 | 47.96802 | 16.48857 | 6768 ft | 296 kts | 178° |
| 2026-04-22 17:46 | 47.94816 | 16.49567 | 7397 ft | 299 kts | 150° |
| 2026-04-22 17:46 | 47.93102 | 16.51296 | 8129 ft | 297 kts | 143° |
| 2026-04-22 17:46 | 47.91313 | 16.52901 | 8836 ft | 301 kts | 150° |
| 2026-04-22 17:47 | 47.89516 | 16.54285 | 9506 ft | 304 kts | 152° |
| 2026-04-22 17:47 | 47.87831 | 16.55488 | 10097 ft | 306 kts | 153° |
| 2026-04-22 17:47 | 47.86497 | 16.56401 | 10467 ft | 313 kts | 153° |
| 2026-04-22 17:47 | 47.85083 | 16.57346 | 10601 ft | 328 kts | 154° |
| 2026-04-22 17:48 | 47.83291 | 16.58518 | 10832 ft | 343 kts | 154° |
| 2026-04-22 17:48 | 47.80107 | 16.60568 | 11218 ft | 369 kts | 154° |
| 2026-04-22 17:48 | 47.77681 | 16.62114 | 11594 ft | 383 kts | 155° |
| 2026-04-22 17:48 | 47.75217 | 16.63678 | 12340 ft | 385 kts | 155° |
| 2026-04-22 17:49 | 47.72806 | 16.65207 | 13012 ft | 389 kts | 154° |
| 2026-04-22 17:49 | 47.70333 | 16.66771 | 13690 ft | 392 kts | 154° |
| 2026-04-22 17:49 | 47.67796 | 16.68375 | 14372 ft | 395 kts | 154° |
| 2026-04-22 17:49 | 47.65241 | 16.69988 | 14943 ft | 400 kts | 154° |
| 2026-04-22 17:50 | 47.63051 | 16.71369 | 15479 ft | 401 kts | 154° |
| 2026-04-22 17:50 | 47.60538 | 16.72952 | 16020 ft | 405 kts | 154° |
| 2026-04-22 17:50 | 47.57855 | 16.74586 | 16532 ft | 409 kts | 159° |
| 2026-04-22 17:50 | 47.55129 | 16.75457 | 17047 ft | 417 kts | 172° |
| 2026-04-22 17:51 | 47.52118 | 16.75768 | 17557 ft | 421 kts | 174° |
| 2026-04-22 17:51 | 47.49194 | 16.76069 | 18047 ft | 424 kts | 174° |
| 2026-04-22 17:51 | 47.46571 | 16.76328 | 18538 ft | 425 kts | 174° |
| 2026-04-22 17:51 | 47.43440 | 16.76633 | 19019 ft | 429 kts | 174° |
| 2026-04-22 17:52 | 47.40499 | 16.76918 | 19556 ft | 430 kts | 174° |
| 2026-04-22 17:52 | 47.37512 | 16.77205 | 19998 ft | 434 kts | 174° |
| 2026-04-22 17:52 | 47.34528 | 16.77491 | 20455 ft | 436 kts | 174° |
| 2026-04-22 17:52 | 47.31480 | 16.77783 | 20942 ft | 439 kts | 174° |
| 2026-04-22 17:53 | 47.28471 | 16.78070 | 21398 ft | 441 kts | 174° |
| 2026-04-22 17:53 | 47.25404 | 16.78363 | 21800 ft | 444 kts | 174° |
| 2026-04-22 17:53 | 47.22303 | 16.78659 | 22207 ft | 447 kts | 174° |
| 2026-04-22 17:53 | 47.19214 | 16.78953 | 22637 ft | 449 kts | 174° |
| 2026-04-22 17:54 | 47.16112 | 16.79248 | 23080 ft | 451 kts | 174° |
| 2026-04-22 17:54 | 47.12957 | 16.79547 | 23507 ft | 453 kts | 174° |
| 2026-04-22 17:54 | 47.10122 | 16.79816 | 23861 ft | 456 kts | 174° |
| 2026-04-22 17:54 | 47.07180 | 16.80094 | 24259 ft | 457 kts | 174° |
| 2026-04-22 17:55 | 47.03844 | 16.80409 | 24633 ft | 460 kts | 174° |
| 2026-04-22 17:55 | 47.00654 | 16.80710 | 24997 ft | 462 kts | 174° |
| 2026-04-22 17:55 | 46.97396 | 16.81019 | 25352 ft | 464 kts | 174° |
| 2026-04-22 17:55 | 46.94227 | 16.81673 | 25719 ft | 464 kts | 165° |
| 2026-04-22 17:56 | 46.91136 | 16.83092 | 26078 ft | 464 kts | 154° |
| 2026-04-22 17:56 | 46.88592 | 16.84932 | 26380 ft | 462 kts | 146° |
| 2026-04-22 17:56 | 46.86760 | 16.86715 | 26571 ft | 462 kts | 139° |
| 2026-04-22 17:56 | 46.84122 | 16.90221 | 26939 ft | 460 kts | 128° |
| 2026-04-22 17:57 | 46.82055 | 16.94121 | 27243 ft | 458 kts | 120° |
| 2026-04-22 17:57 | 46.80271 | 16.98016 | 27588 ft | 460 kts | 120° |
| 2026-04-22 17:57 | 46.78557 | 17.01827 | 27856 ft | 462 kts | 119° |
| 2026-04-22 17:57 | 46.76955 | 17.05441 | 28213 ft | 462 kts | 119° |
| 2026-04-22 17:58 | 46.75126 | 17.09607 | 28497 ft | 465 kts | 119° |
| 2026-04-22 17:58 | 46.73390 | 17.13581 | 28801 ft | 466 kts | 118° |
| 2026-04-22 17:58 | 46.71645 | 17.17582 | 29114 ft | 468 kts | 118° |
| 2026-04-22 17:58 | 46.69894 | 17.21603 | 29331 ft | 471 kts | 118° |
| 2026-04-22 17:59 | 46.68166 | 17.25568 | 29619 ft | 472 kts | 118° |
| 2026-04-22 17:59 | 46.66395 | 17.29633 | 29899 ft | 473 kts | 118° |
| 2026-04-22 17:59 | 46.64640 | 17.33656 | 30036 ft | 478 kts | 118° |
| 2026-04-22 17:59 | 46.62843 | 17.37769 | 30331 ft | 479 kts | 118° |
| 2026-04-22 18:00 | 46.61680 | 17.40431 | 30474 ft | 481 kts | 118° |
| 2026-04-22 18:00 | 46.59275 | 17.45925 | 30734 ft | 484 kts | 118° |
| 2026-04-22 18:00 | 46.57452 | 17.50079 | 31066 ft | 483 kts | 118° |
| 2026-04-22 18:00 | 46.55644 | 17.54197 | 31251 ft | 485 kts | 118° |
| 2026-04-22 18:01 | 46.53827 | 17.58327 | 31503 ft | 484 kts | 118° |
| 2026-04-22 18:01 | 46.52033 | 17.62402 | 31712 ft | 484 kts | 118° |
| 2026-04-22 18:01 | 46.50239 | 17.66467 | 31915 ft | 484 kts | 119° |
| 2026-04-22 18:01 | 46.48596 | 17.70188 | 32070 ft | 485 kts | 119° |
| 2026-04-22 18:02 | 46.46791 | 17.74268 | 32279 ft | 484 kts | 120° |
| 2026-04-22 18:02 | 46.44967 | 17.78388 | 32417 ft | 486 kts | 120° |
| 2026-04-22 18:02 | 46.43156 | 17.82470 | 32580 ft | 487 kts | 120° |
| 2026-04-22 18:02 | 46.41310 | 17.86624 | 32792 ft | 485 kts | 120° |
| 2026-04-22 18:03 | 46.39483 | 17.90732 | 32903 ft | 487 kts | 120° |
| 2026-04-22 18:03 | 46.37651 | 17.94842 | 33132 ft | 485 kts | 120° |
| 2026-04-22 18:03 | 46.35820 | 17.98945 | 33264 ft | 486 kts | 120° |
| 2026-04-22 18:03 | 46.33990 | 18.03039 | 33441 ft | 485 kts | 120° |
| 2026-04-22 18:04 | 46.32182 | 18.07078 | 33602 ft | 485 kts | 120° |
| 2026-04-22 18:04 | 46.30315 | 18.11245 | 33739 ft | 485 kts | 120° |
| 2026-04-22 18:04 | 46.28484 | 18.15322 | 33937 ft | 484 kts | 120° |
| 2026-04-22 18:04 | 46.26678 | 18.19340 | 34078 ft | 485 kts | 120° |
| 2026-04-22 18:05 | 46.25093 | 18.22863 | 34234 ft | 485 kts | 120° |
| 2026-04-22 18:05 | 46.23071 | 18.27346 | 34445 ft | 484 kts | 120° |
| 2026-04-22 18:05 | 46.21232 | 18.31420 | 34598 ft | 484 kts | 120° |
| 2026-04-22 18:05 | 46.19390 | 18.35496 | 34759 ft | 484 kts | 120° |
| 2026-04-22 18:06 | 46.17552 | 18.39554 | 34897 ft | 484 kts | 120° |
| 2026-04-22 18:06 | 46.15738 | 18.43555 | 35074 ft | 483 kts | 120° |
| 2026-04-22 18:06 | 46.13909 | 18.47581 | 35135 ft | 479 kts | 120° |
| 2026-04-22 18:07 | 46.10491 | 18.55094 | 35135 ft | 482 kts | 120° |
| 2026-04-22 18:07 | 46.06802 | 18.63179 | 35134 ft | 482 kts | 120° |
| 2026-04-22 18:08 | 46.03159 | 18.71141 | 35129 ft | 482 kts | 121° |
| 2026-04-22 18:08 | 45.99513 | 18.79085 | 35137 ft | 482 kts | 121° |
| 2026-04-22 18:09 | 45.95818 | 18.87117 | 35129 ft | 482 kts | 121° |
| 2026-04-22 18:09 | 45.91589 | 18.94566 | 35144 ft | 487 kts | 135° |
| 2026-04-22 18:10 | 45.86594 | 19.01068 | 35124 ft | 489 kts | 136° |
| 2026-04-22 18:10 | 45.81719 | 19.07300 | 35127 ft | 489 kts | 136° |
| 2026-04-22 18:11 | 45.76673 | 19.13686 | 35128 ft | 488 kts | 136° |
| 2026-04-22 18:11 | 45.71627 | 19.20038 | 35131 ft | 489 kts | 137° |
| 2026-04-22 18:12 | 45.66573 | 19.26376 | 35120 ft | 488 kts | 137° |
| 2026-04-22 18:12 | 45.62565 | 19.31388 | 35124 ft | 489 kts | 137° |
| 2026-04-22 18:13 | 45.56550 | 19.38892 | 35130 ft | 490 kts | 137° |
| 2026-04-22 18:13 | 45.54036 | 19.42022 | 34986 ft | 492 kts | 137° |
| 2026-04-22 18:13 | 45.51543 | 19.45122 | 34805 ft | 492 kts | 137° |
| 2026-04-22 18:13 | 45.48934 | 19.48362 | 34306 ft | 497 kts | 137° |
| 2026-04-22 18:14 | 45.46348 | 19.51568 | 33990 ft | 492 kts | 137° |
| 2026-04-22 18:14 | 45.43776 | 19.54752 | 33676 ft | 488 kts | 137° |
| 2026-04-22 18:14 | 45.41262 | 19.57863 | 33367 ft | 489 kts | 137° |
| 2026-04-22 18:14 | 45.38682 | 19.61051 | 33165 ft | 488 kts | 136° |
| 2026-04-22 18:15 | 45.36139 | 19.64189 | 33117 ft | 485 kts | 136° |
| 2026-04-22 18:15 | 45.31016 | 19.70501 | 33129 ft | 491 kts | 137° |
| 2026-04-22 18:16 | 45.25841 | 19.76858 | 33114 ft | 490 kts | 137° |
| 2026-04-22 18:16 | 45.20694 | 19.83167 | 33118 ft | 491 kts | 137° |
| 2026-04-22 18:17 | 45.15545 | 19.89462 | 33132 ft | 492 kts | 137° |
| 2026-04-22 18:17 | 45.10383 | 19.95757 | 33127 ft | 491 kts | 137° |
| 2026-04-22 18:18 | 45.05343 | 20.01888 | 33124 ft | 490 kts | 137° |
| 2026-04-22 18:18 | 45.00246 | 20.08073 | 33127 ft | 492 kts | 138° |
| 2026-04-22 18:19 | 44.95205 | 20.14177 | 33126 ft | 492 kts | 138° |
| 2026-04-22 18:19 | 44.90239 | 20.20174 | 33129 ft | 493 kts | 138° |
| 2026-04-22 18:20 | 44.85551 | 20.25824 | 33119 ft | 492 kts | 138° |
| 2026-04-22 18:20 | 44.80113 | 20.32361 | 33120 ft | 494 kts | 138° |
| 2026-04-22 18:21 | 44.74901 | 20.38613 | 33123 ft | 496 kts | 137° |
| 2026-04-22 18:21 | 44.70046 | 20.45459 | 33117 ft | 495 kts | 133° |
| 2026-04-22 18:22 | 44.65232 | 20.52353 | 33110 ft | 496 kts | 133° |
| 2026-04-22 18:22 | 44.60401 | 20.59195 | 33104 ft | 495 kts | 133° |
| 2026-04-22 18:23 | 44.55541 | 20.66043 | 33099 ft | 497 kts | 134° |
| 2026-04-22 18:23 | 44.50656 | 20.72899 | 33090 ft | 498 kts | 135° |
| 2026-04-22 18:24 | 44.43352 | 20.83113 | 33095 ft | 498 kts | 135° |
| 2026-04-22 18:25 | 44.35974 | 20.93392 | 33097 ft | 499 kts | 135° |
| 2026-04-22 18:25 | 44.31058 | 21.00217 | 33098 ft | 500 kts | 135° |
| 2026-04-22 18:26 | 44.24124 | 21.09817 | 33101 ft | 500 kts | 135° |
| 2026-04-22 18:26 | 44.18887 | 21.17045 | 33101 ft | 501 kts | 135° |
| 2026-04-22 18:27 | 44.14339 | 21.23306 | 33100 ft | 501 kts | 135° |
| 2026-04-22 18:27 | 44.09689 | 21.29692 | 33091 ft | 501 kts | 136° |
| 2026-04-22 18:28 | 44.04927 | 21.36219 | 33095 ft | 502 kts | 136° |
| 2026-04-22 18:28 | 44.00227 | 21.42643 | 33102 ft | 502 kts | 136° |
| 2026-04-22 18:29 | 43.95982 | 21.48433 | 33097 ft | 503 kts | 136° |
| 2026-04-22 18:29 | 43.92858 | 21.52687 | 33093 ft | 503 kts | 136° |
| 2026-04-22 18:30 | 43.87723 | 21.59663 | 33087 ft | 504 kts | 136° |
| 2026-04-22 18:31 | 43.83456 | 21.65448 | 32999 ft | 506 kts | 137° |
| 2026-04-22 18:31 | 43.80964 | 21.68822 | 32778 ft | 485 kts | 137° |
| 2026-04-22 18:31 | 43.78712 | 21.71870 | 32084 ft | 481 kts | 137° |
| 2026-04-22 18:31 | 43.76308 | 21.75114 | 31082 ft | 481 kts | 137° |
| 2026-04-22 18:32 | 43.73958 | 21.78285 | 30696 ft | 472 kts | 137° |
| 2026-04-22 18:32 | 43.71627 | 21.81425 | 30193 ft | 468 kts | 137° |
| 2026-04-22 18:32 | 43.69283 | 21.84576 | 29754 ft | 471 kts | 137° |
| 2026-04-22 18:32 | 43.66959 | 21.87698 | 29285 ft | 476 kts | 137° |
| 2026-04-22 18:33 | 43.64546 | 21.90935 | 28748 ft | 477 kts | 137° |
| 2026-04-22 18:33 | 43.62193 | 21.94093 | 28223 ft | 472 kts | 137° |
| 2026-04-22 18:33 | 43.59851 | 21.97230 | 27693 ft | 467 kts | 137° |
| 2026-04-22 18:33 | 43.57545 | 22.00315 | 27158 ft | 463 kts | 138° |
| 2026-04-22 18:34 | 43.55263 | 22.03365 | 26666 ft | 459 kts | 137° |
| 2026-04-22 18:34 | 43.52975 | 22.06420 | 26154 ft | 454 kts | 138° |
| 2026-04-22 18:34 | 43.50711 | 22.09438 | 25630 ft | 450 kts | 138° |
| 2026-04-22 18:34 | 43.48487 | 22.12400 | 25120 ft | 447 kts | 137° |
| 2026-04-22 18:35 | 43.46263 | 22.15359 | 24600 ft | 443 kts | 137° |
| 2026-04-22 18:35 | 43.44051 | 22.18300 | 24043 ft | 439 kts | 138° |
| 2026-04-22 18:35 | 43.42026 | 22.20989 | 23532 ft | 435 kts | 138° |
| 2026-04-22 18:35 | 43.39810 | 22.23930 | 22982 ft | 430 kts | 138° |
| 2026-04-22 18:36 | 43.37660 | 22.26778 | 22475 ft | 428 kts | 138° |
| 2026-04-22 18:36 | 43.35541 | 22.29580 | 22049 ft | 429 kts | 138° |
| 2026-04-22 18:36 | 43.33639 | 22.32093 | 21631 ft | 432 kts | 138° |
| 2026-04-22 18:36 | 43.31607 | 22.34779 | 21150 ft | 426 kts | 138° |
| 2026-04-22 18:37 | 43.29185 | 22.37974 | 20602 ft | 420 kts | 138° |
| 2026-04-22 18:37 | 43.27148 | 22.40661 | 20160 ft | 413 kts | 138° |
| 2026-04-22 18:37 | 43.25096 | 22.43363 | 19714 ft | 407 kts | 138° |
| 2026-04-22 18:37 | 43.23070 | 22.46028 | 19268 ft | 401 kts | 137° |
| 2026-04-22 18:38 | 43.21095 | 22.48624 | 18835 ft | 398 kts | 137° |
| 2026-04-22 18:38 | 43.19081 | 22.51267 | 18415 ft | 397 kts | 137° |
| 2026-04-22 18:38 | 43.17091 | 22.53877 | 18059 ft | 395 kts | 137° |
| 2026-04-22 18:39 | 43.13196 | 22.58980 | 18054 ft | 397 kts | 137° |
| 2026-04-22 18:39 | 43.11187 | 22.61607 | 18052 ft | 401 kts | 137° |
| 2026-04-22 18:39 | 43.09173 | 22.64240 | 18046 ft | 399 kts | 137° |
| 2026-04-22 18:39 | 43.07155 | 22.66876 | 18021 ft | 398 kts | 138° |
| 2026-04-22 18:40 | 43.05149 | 22.69491 | 17862 ft | 399 kts | 138° |
| 2026-04-22 18:40 | 43.03164 | 22.72079 | 17699 ft | 396 kts | 138° |
| 2026-04-22 18:40 | 43.01223 | 22.74606 | 17537 ft | 393 kts | 138° |
| 2026-04-22 18:40 | 42.99255 | 22.77165 | 17384 ft | 393 kts | 138° |
| 2026-04-22 18:41 | 42.97342 | 22.79660 | 17232 ft | 392 kts | 136° |
| 2026-04-22 18:41 | 42.95517 | 22.82484 | 17072 ft | 392 kts | 131° |
| 2026-04-22 18:41 | 42.93823 | 22.85222 | 16914 ft | 391 kts | 131° |
| 2026-04-22 18:41 | 42.92102 | 22.87974 | 16763 ft | 389 kts | 131° |
| 2026-04-22 18:42 | 42.90351 | 22.90771 | 16603 ft | 389 kts | 131° |
| 2026-04-22 18:42 | 42.88592 | 22.93572 | 16438 ft | 389 kts | 131° |
| 2026-04-22 18:42 | 42.86827 | 22.96380 | 16289 ft | 387 kts | 131° |
| 2026-04-22 18:42 | 42.85091 | 22.99137 | 16125 ft | 385 kts | 131° |
| 2026-04-22 18:43 | 42.83357 | 23.01889 | 15959 ft | 384 kts | 131° |
| 2026-04-22 18:43 | 42.81622 | 23.04639 | 15805 ft | 383 kts | 131° |
| 2026-04-22 18:43 | 42.79891 | 23.07379 | 15646 ft | 381 kts | 131° |
| 2026-04-22 18:43 | 42.78178 | 23.10089 | 15484 ft | 380 kts | 131° |
| 2026-04-22 18:44 | 42.76432 | 23.12849 | 15327 ft | 379 kts | 131° |
| 2026-04-22 18:44 | 42.74712 | 23.15564 | 15171 ft | 378 kts | 131° |
| 2026-04-22 18:44 | 42.73030 | 23.18218 | 15008 ft | 377 kts | 131° |
| 2026-04-22 18:44 | 42.71324 | 23.20907 | 14856 ft | 375 kts | 131° |
| 2026-04-22 18:45 | 42.69634 | 23.23569 | 14703 ft | 374 kts | 130° |
| 2026-04-22 18:45 | 42.67955 | 23.26211 | 14665 ft | 370 kts | 131° |
| 2026-04-22 18:45 | 42.66289 | 23.28830 | 14677 ft | 373 kts | 131° |
| 2026-04-22 18:45 | 42.64583 | 23.31510 | 14675 ft | 375 kts | 131° |
| 2026-04-22 18:46 | 42.62954 | 23.34265 | 14666 ft | 374 kts | 122° |
| 2026-04-22 18:46 | 42.61874 | 23.37405 | 14690 ft | 374 kts | 105° |
| 2026-04-22 18:46 | 42.61414 | 23.40865 | 14637 ft | 376 kts | 94° |
| 2026-04-22 18:46 | 42.61168 | 23.44430 | 14310 ft | 378 kts | 94° |
| 2026-04-22 18:47 | 42.60930 | 23.47971 | 13798 ft | 375 kts | 94° |
| 2026-04-22 18:47 | 42.60715 | 23.51309 | 13466 ft | 367 kts | 93° |
| 2026-04-22 18:47 | 42.60500 | 23.54690 | 13381 ft | 351 kts | 93° |
| 2026-04-22 18:47 | 42.60298 | 23.57889 | 13360 ft | 334 kts | 93° |
| 2026-04-22 18:48 | 42.60107 | 23.60918 | 13342 ft | 319 kts | 93° |
| 2026-04-22 18:48 | 42.59921 | 23.63864 | 13320 ft | 304 kts | 92° |
| 2026-04-22 18:48 | 42.59748 | 23.66634 | 13297 ft | 290 kts | 93° |
| 2026-04-22 18:48 | 42.59582 | 23.69327 | 13268 ft | 276 kts | 93° |
| 2026-04-22 18:49 | 42.59426 | 23.71843 | 13223 ft | 264 kts | 93° |
| 2026-04-22 18:49 | 42.59274 | 23.74299 | 12965 ft | 262 kts | 93° |
| 2026-04-22 18:49 | 42.59121 | 23.76759 | 12509 ft | 260 kts | 93° |
| 2026-04-22 18:49 | 42.58966 | 23.79206 | 11981 ft | 259 kts | 93° |
| 2026-04-22 18:50 | 42.58815 | 23.81595 | 11451 ft | 259 kts | 92° |
| 2026-04-22 18:50 | 42.58660 | 23.84016 | 11046 ft | 252 kts | 92° |
| 2026-04-22 18:50 | 42.58510 | 23.86354 | 10685 ft | 248 kts | 92° |
| 2026-04-22 18:50 | 42.58362 | 23.88680 | 10548 ft | 247 kts | 92° |
| 2026-04-22 18:51 | 42.58213 | 23.91024 | 10210 ft | 256 kts | 91° |
| 2026-04-22 18:51 | 42.58387 | 23.93381 | 9913 ft | 244 kts | 62° |
| 2026-04-22 18:51 | 42.59311 | 23.95098 | 9692 ft | 233 kts | 32° |
| 2026-04-22 18:51 | 42.60798 | 23.95874 | 9459 ft | 230 kts | 359° |
| 2026-04-22 18:52 | 42.62330 | 23.95405 | 9225 ft | 231 kts | 328° |
| 2026-04-22 18:52 | 42.63438 | 23.93844 | 8960 ft | 235 kts | 297° |
| 2026-04-22 18:52 | 42.63910 | 23.91701 | 8531 ft | 241 kts | 284° |
| 2026-04-22 18:52 | 42.64251 | 23.89455 | 8050 ft | 239 kts | 285° |
| 2026-04-22 18:53 | 42.64584 | 23.87323 | 7952 ft | 223 kts | 286° |
| 2026-04-22 18:53 | 42.64885 | 23.85401 | 7981 ft | 228 kts | 286° |
| 2026-04-22 18:53 | 42.65273 | 23.83168 | 7918 ft | 237 kts | 291° |
| 2026-04-22 18:53 | 42.65912 | 23.81093 | 7427 ft | 240 kts | 302° |
| 2026-04-22 18:54 | 42.66753 | 23.79188 | 7073 ft | 231 kts | 304° |
| 2026-04-22 18:54 | 42.67347 | 23.77255 | 6771 ft | 226 kts | 281° |
| 2026-04-22 18:54 | 42.67495 | 23.75236 | 6474 ft | 227 kts | 279° |
| 2026-04-22 18:55 | 42.67659 | 23.73075 | 6148 ft | 231 kts | 279° |
| 2026-04-22 18:55 | 42.67815 | 23.70919 | 5817 ft | 232 kts | 279° |
| 2026-04-22 18:55 | 42.67961 | 23.68782 | 5483 ft | 230 kts | 279° |
| 2026-04-22 18:55 | 42.68104 | 23.66615 | 5156 ft | 228 kts | 278° |
| 2026-04-22 18:56 | 42.68242 | 23.64491 | 4832 ft | 227 kts | 278° |
| 2026-04-22 18:56 | 42.68350 | 23.62799 | 4572 ft | 226 kts | 278° |
| 2026-04-22 18:56 | 42.68479 | 23.60719 | 4282 ft | 217 kts | 278° |
| 2026-04-22 18:56 | 42.68601 | 23.58710 | 3989 ft | 208 kts | 278° |
| 2026-04-22 18:57 | 42.68711 | 23.56856 | 3720 ft | 193 kts | 278° |
| 2026-04-22 18:57 | 42.68824 | 23.55109 | 3463 ft | 176 kts | 278° |
| 2026-04-22 18:57 | 42.68923 | 23.53515 | 3188 ft | 161 kts | 278° |
| 2026-04-22 18:57 | 42.69009 | 23.52058 | 2938 ft | 147 kts | 278° |
| 2026-04-22 18:58 | 42.69093 | 23.50746 | 2732 ft | 137 kts | 278° |
| 2026-04-22 18:58 | 42.69171 | 23.49541 | 2592 ft | 141 kts | 277° |
| 2026-04-22 18:58 | 42.69258 | 23.48134 | 2398 ft | 143 kts | 277° |
| 2026-04-22 18:58 | 42.69334 | 23.46794 | 2197 ft | 140 kts | 276° |
| 2026-04-22 18:59 | 42.69415 | 23.45493 | 2011 ft | 139 kts | 276° |
| 2026-04-22 18:59 | 42.69497 | 23.44223 | 1818 ft | 139 kts | 276° |
| 2026-04-22 18:59 | 42.69609 | 23.42966 | 1738 ft | 133 kts | 276° |
| 2026-04-22 18:59 | 42.69621 | 23.41707 | 1744 ft | 126 kts | 276° |
| 2026-04-22 19:00 | 42.69688 | 23.40996 | 1746 ft | 74 kts | 276° |
| 2026-04-22 19:00 | 42.69741 | 23.40455 | 1748 ft | 58 kts | 270° |
| 2026-04-22 19:00 | 42.69758 | 23.39921 | 1744 ft | 53 kts | 272° |
| 2026-04-22 19:00 | 42.69754 | 23.39620 | 1744 ft | 22 kts | 258° |
| 2026-04-22 19:01 | 42.69731 | 23.39540 | 1745 ft | 0 kts | 245° |
| 2026-04-22 19:01 | 42.69729 | 23.39532 | 1745 ft | 6 kts | 245° |
| 2026-04-22 19:01 | 42.69697 | 23.39450 | 1745 ft | 4 kts | 229° |
| 2026-04-22 19:01 | 42.69680 | 23.39429 | 1746 ft | 2 kts | 206° |
| 2026-04-22 19:02 | 42.69665 | 23.39422 | 1746 ft | 1 kts | 187° |
| 2026-04-22 19:02 | 42.69656 | 23.39422 | 1746 ft | 2 kts | 183° |
| 2026-04-22 19:02 | 42.69650 | 23.39421 | 1746 ft | 0 kts | 183° |
| 2026-04-22 19:02 | 42.69644 | 23.39420 | 1746 ft | 1 kts | 187° |
| 2026-04-22 19:03 | 42.69641 | 23.39420 | 1746 ft | 0 kts | 187° |
| 2026-04-22 19:03 | 42.69640 | 23.39420 | 1746 ft | 1 kts | 188° |
| 2026-04-22 19:03 | 42.69624 | 23.39417 | 1747 ft | 3 kts | 187° |
| 2026-04-22 19:03 | 42.69623 | 23.39417 | 1747 ft | 0 kts | 187° |
| 2026-04-22 19:04 | 42.69619 | 23.39416 | 1747 ft | 3 kts | 187° |
| 2026-04-22 19:04 | 42.69572 | 23.39409 | 1747 ft | 7 kts | 185° |